Hovedside
METAR-TAF:

METAR-TAF

Lufthavner :

Stockholm-Arlanda, Sverige

Arlanda lufthavn

breddegrad: 59-39N, lengdegrad: 017-57E, høyde over havet: 38 m

Gjeldene værobservasjon

Denne rapporten ble laget for 17 minutter siden, klokken 05:50 UTC
Vind 4 kt fra Vest-sørvest, skiftende mellom Sørvest og Vest
Temperatur -5°C
Luftfuktighet 86%
Trykk 1025 hPa
Sikt 10 km eller mer
ingen skyer under 1500 m og ingen bygeskyer

METAR: ESSA 240550Z 25004KT 220V280 CAVOK M05/M07 Q1025 R01L/09//95 R08/09//95 R01R/09//95 NOSIG

Tid: 07:07 (06:07 UTC)

Varsel

Denne rapporten ble laget for 37 minutter siden, klokken 05:30 UTC
Varsel gyldig fra 24. klokken 06 UTC til 25. klokken 06 UTC
Vind 8 kt fra Vest
Sikt 10 km eller mer
ingen skyer under 1500 m og ingen bygeskyer

TAF: ESSA 240530Z 2406/2506 27008KT CAVOK

Værobservasjoner og værvarsel for over 4000 flyplasser (METAR- og TAF-rapporter).

Tilgjengelige stasjoner er representert av de røde og gule prikkene på kartet.

Hold musepekeren over prikken for å se navnet på stasjonen.

Klikk så for å se værobservasjoner og -varsler.

For å forandre kartet kan du klikke på den grønne knappen med svart kryss for å zoome inn, på den grønne knappen med strek for å zoome ut, eller på de grønne pilene for å se tilstøtende kart.


METAR-TAF: